Terminal Aerodrome Forecast
Issued by NWS Charleston, WV

Current Version | Previous Version | Text Only | Print | Product List | Glossary Off
Versions: 1 2 3 4 5 6 7 8 9 10 11 12 13 14 15 16 17 18 19 20 21 22 23 24

000
FTUS41 KRLX 202300
TAFHTS
TAF
KHTS 202325Z 2100/2124 00000KT 6SM HZ BKN090
     FM210500 00000KT 4SM BR SCT120
     FM210800 00000KT 1SM BR SCT001
     FM210900 00000KT 1/2SM FG OVC001
     FM211100 00000KT 1 1/2SM BR SCT002 SCT090
     FM211200 00000KT 4SM BR SCT090
     FM211300 VRB03KT P6SM SCT060=

USA.gov is the U.S. government's official web portal to all federal, state and local government web resources and services.